createdAt,value
2018-01-27T00:00:39.939Z,8.35
2018-01-27T00:03:07.564Z,8.33
2018-01-27T00:05:35.171Z,8.71
2018-01-27T00:08:02.841Z,8.77
2018-01-27T00:10:30.438Z,8.62
2018-01-27T00:12:58.078Z,8.53
2018-01-27T00:15:25.828Z,8.67
2018-01-27T00:17:53.433Z,8.66
2018-01-27T00:20:21.109Z,8.61
2018-01-27T00:22:52.447Z,8.70
2018-01-27T00:25:20.079Z,8.64
2018-01-27T00:27:47.689Z,8.56
2018-01-27T00:30:15.310Z,8.60
2018-01-27T00:32:42.933Z,8.68
2018-01-27T00:35:10.565Z,8.71
2018-01-27T00:37:38.183Z,8.77
2018-01-27T00:40:05.827Z,8.72
2018-01-27T00:42:33.560Z,8.73
2018-01-27T00:45:01.811Z,8.87
2018-01-27T00:47:29.441Z,8.83
2018-01-27T00:49:57.074Z,8.72
2018-01-27T00:52:24.712Z,8.72
2018-01-27T00:54:52.348Z,8.55
2018-01-27T00:57:19.954Z,8.83
2018-01-27T00:59:47.557Z,8.83
2018-01-27T01:02:15.178Z,8.78
2018-01-27T01:04:42.785Z,8.79
2018-01-27T01:07:10.409Z,8.70
2018-01-27T01:09:38.001Z,8.62
2018-01-27T01:12:05.594Z,8.48
2018-01-27T01:14:33.223Z,8.52
2018-01-27T01:17:00.818Z,8.50
2018-01-27T01:19:28.447Z,8.15
2018-01-27T01:21:56.044Z,8.23
2018-01-27T01:24:23.667Z,8.38
2018-01-27T01:26:51.311Z,8.42
2018-01-27T01:29:18.908Z,8.39
2018-01-27T01:31:46.527Z,8.43
2018-01-27T01:34:14.123Z,8.13
2018-01-27T01:36:42.057Z,8.04
2018-01-27T01:39:09.659Z,8.08
2018-01-27T01:41:37.250Z,8.06
2018-01-27T01:47:06.112Z,8.33
2018-01-27T01:49:33.745Z,8.23
2018-01-27T01:52:01.340Z,8.21
2018-01-27T01:54:28.966Z,8.16
2018-01-27T01:56:56.559Z,8.14
2018-01-27T01:59:24.183Z,8.11
2018-01-27T02:01:51.775Z,8.30
2018-01-27T02:04:19.387Z,8.38
2018-01-27T02:06:47.040Z,8.33
2018-01-27T02:09:14.662Z,8.39
2018-01-27T02:11:42.275Z,8.32
2018-01-27T02:14:09.954Z,8.35
2018-01-27T02:16:37.840Z,8.40
2018-01-27T02:19:05.439Z,8.48
2018-01-27T02:21:33.039Z,8.54
2018-01-27T02:24:00.656Z,8.53
2018-01-27T02:26:28.271Z,8.47
2018-01-27T02:28:55.887Z,8.43
2018-01-27T02:31:23.482Z,8.48
2018-01-27T02:33:51.152Z,8.38
2018-01-27T02:36:18.750Z,8.44
2018-01-27T02:38:46.349Z,8.49
2018-01-27T02:41:13.968Z,8.56
2018-01-27T02:43:41.564Z,8.45
2018-01-27T02:46:09.213Z,8.64
2018-01-27T02:48:36.823Z,8.49
2018-01-27T02:51:04.652Z,8.55
2018-01-27T02:53:32.263Z,8.65
2018-01-27T02:55:59.921Z,8.55
2018-01-27T02:58:27.552Z,8.54
2018-01-27T03:00:55.231Z,8.51
2018-01-27T03:03:23.191Z,8.43
2018-01-27T03:05:50.785Z,8.45
2018-01-27T03:08:18.384Z,8.37
2018-01-27T03:10:46.003Z,8.47
2018-01-27T03:13:13.643Z,8.37
2018-01-27T03:15:41.411Z,8.32
2018-01-27T03:18:09.026Z,8.41
2018-01-27T03:20:36.635Z,8.42
2018-01-27T03:23:04.270Z,8.30
2018-01-27T03:25:31.865Z,8.43
2018-01-27T03:27:59.489Z,8.54
2018-01-27T03:30:27.089Z,8.40
2018-01-27T03:32:54.675Z,8.14
2018-01-27T03:35:22.297Z,8.23
2018-01-27T03:37:49.895Z,8.27
2018-01-27T03:40:17.789Z,8.40
2018-01-27T03:42:45.381Z,8.30
2018-01-27T03:45:12.971Z,8.18
2018-01-27T03:47:40.586Z,8.09
2018-01-27T03:50:08.198Z,8.24
2018-01-27T03:52:35.826Z,8.26
2018-01-27T03:55:03.415Z,8.32
2018-01-27T03:57:31.287Z,8.21
2018-01-27T03:59:58.883Z,8.06
2018-01-27T04:02:26.503Z,8.04
2018-01-27T04:04:54.165Z,8.23
2018-01-27T04:07:21.765Z,8.00
2018-01-27T04:09:49.384Z,8.07
2018-01-27T04:12:16.973Z,8.18
2018-01-27T04:14:44.573Z,8.22
2018-01-27T04:17:12.184Z,8.21
2018-01-27T04:19:39.788Z,8.30
2018-01-27T04:24:41.280Z,8.42
2018-01-27T04:27:08.927Z,8.33
2018-01-27T04:29:36.535Z,8.43
2018-01-27T04:32:04.136Z,8.38
2018-01-27T04:34:31.778Z,8.49
2018-01-27T04:36:59.374Z,8.60
2018-01-27T04:39:26.988Z,8.66
2018-01-27T04:41:54.577Z,8.41
2018-01-27T04:44:22.463Z,8.42
2018-01-27T04:46:50.059Z,8.39
2018-01-27T04:49:17.653Z,8.08
2018-01-27T04:51:45.275Z,8.08
2018-01-27T04:54:12.880Z,8.14
2018-01-27T04:56:40.495Z,8.34
2018-01-27T04:59:08.093Z,8.22
2018-01-27T05:01:35.738Z,8.35
2018-01-27T05:04:03.343Z,8.23
2018-01-27T05:06:30.932Z,8.35
2018-01-27T05:08:58.564Z,8.34
2018-01-27T05:11:26.288Z,8.32
2018-01-27T05:13:53.918Z,7.98
2018-01-27T05:16:21.506Z,8.13
2018-01-27T05:18:49.118Z,8.14
2018-01-27T05:21:16.742Z,8.13
2018-01-27T05:23:44.335Z,8.25
2018-01-27T05:26:11.946Z,8.26
2018-01-27T05:28:39.531Z,8.28
2018-01-27T05:31:07.161Z,8.20
2018-01-27T05:33:34.759Z,7.92
2018-01-27T05:36:02.387Z,8.11
2018-01-27T05:38:30.012Z,7.80
2018-01-27T05:40:57.613Z,7.99
2018-01-27T05:43:25.230Z,8.01
2018-01-27T05:45:52.823Z,8.11
2018-01-27T05:48:20.453Z,8.13
2018-01-27T05:50:48.045Z,8.16
2018-01-27T05:53:15.665Z,7.98
2018-01-27T05:55:43.285Z,7.95
2018-01-27T05:58:10.882Z,8.07
2018-01-27T06:00:38.519Z,8.23
2018-01-27T06:03:06.124Z,8.31
2018-01-27T06:05:33.743Z,8.30
2018-01-27T06:08:01.332Z,8.38
2018-01-27T06:10:28.929Z,8.24
2018-01-27T06:12:56.552Z,8.28
2018-01-27T06:15:24.143Z,8.12
2018-01-27T06:17:51.757Z,8.07
2018-01-27T06:20:19.346Z,8.16
2018-01-27T06:22:46.935Z,8.00
2018-01-27T06:25:14.543Z,7.97
2018-01-27T06:27:42.136Z,7.92
2018-01-27T06:30:09.768Z,7.86
2018-01-27T06:32:37.359Z,7.69
2018-01-27T06:35:04.960Z,7.87
2018-01-27T06:37:32.571Z,7.88
2018-01-27T06:40:00.173Z,7.83
2018-01-27T06:42:27.796Z,7.70
2018-01-27T06:44:55.396Z,7.82
2018-01-27T06:47:22.995Z,7.85
2018-01-27T06:49:50.619Z,7.87
2018-01-27T06:52:18.225Z,8.04
2018-01-27T06:54:45.859Z,8.11
2018-01-27T06:57:13.457Z,8.09
2018-01-27T06:59:41.044Z,7.98
2018-01-27T07:02:08.663Z,7.97
2018-01-27T07:04:36.250Z,8.03
2018-01-27T07:07:04.204Z,8.12
2018-01-27T07:09:31.805Z,8.04
2018-01-27T07:11:59.395Z,8.26
2018-01-27T07:14:27.004Z,8.28
2018-01-27T07:16:54.592Z,8.14
2018-01-27T07:19:22.223Z,8.32
2018-01-27T07:21:49.810Z,8.38
2018-01-27T07:24:17.414Z,8.41
2018-01-27T07:26:45.065Z,8.49
2018-01-27T07:29:12.652Z,8.28
2018-01-27T07:31:40.275Z,8.41
2018-01-27T07:34:07.866Z,8.26
2018-01-27T07:36:35.454Z,8.26
2018-01-27T07:39:03.065Z,8.38
2018-01-27T07:41:30.784Z,8.44
2018-01-27T07:43:58.616Z,8.54
2018-01-27T07:46:26.218Z,8.61
2018-01-27T07:48:53.813Z,8.70
2018-01-27T07:51:21.427Z,8.71
2018-01-27T07:53:49.023Z,8.71
2018-01-27T07:56:16.670Z,8.71
2018-01-27T07:58:44.273Z,8.72
2018-01-27T08:01:11.879Z,8.71
2018-01-27T08:03:39.493Z,8.76
2018-01-27T08:06:07.100Z,8.86
2018-01-27T08:08:34.730Z,8.90
2018-01-27T08:11:02.320Z,8.94
2018-01-27T08:13:30.149Z,8.95
2018-01-27T08:15:57.746Z,9.03
2018-01-27T08:18:25.340Z,9.12
2018-01-27T08:20:52.943Z,9.12
2018-01-27T08:23:20.556Z,9.21
2018-01-27T08:25:48.173Z,9.22
2018-01-27T08:28:15.771Z,9.25
2018-01-27T08:30:43.424Z,9.15
2018-01-27T08:33:11.015Z,9.16
2018-01-27T08:35:38.619Z,9.15
2018-01-27T08:38:06.232Z,9.25
2018-01-27T08:40:33.836Z,9.21
2018-01-27T08:43:01.445Z,9.27
2018-01-27T08:45:29.051Z,9.25
2018-01-27T08:47:56.697Z,9.10
2018-01-27T08:50:24.287Z,9.14
2018-01-27T08:52:51.884Z,9.16
2018-01-27T08:55:19.516Z,9.09
2018-01-27T08:57:47.129Z,9.14
2018-01-27T09:00:14.743Z,9.19
2018-01-27T09:02:42.335Z,9.19
2018-01-27T09:05:10.079Z,9.24
2018-01-27T09:07:37.661Z,9.29
2018-01-27T09:10:05.288Z,9.29
2018-01-27T09:12:32.900Z,8.97
2018-01-27T09:15:00.662Z,8.88
2018-01-27T09:17:28.406Z,8.85
2018-01-27T09:19:56.000Z,8.90
2018-01-27T09:22:23.640Z,9.05
2018-01-27T09:24:51.226Z,9.10
2018-01-27T09:27:18.848Z,9.27
2018-01-27T09:29:46.471Z,9.29
2018-01-27T09:32:14.079Z,9.35
2018-01-27T09:34:41.709Z,9.03
2018-01-27T09:37:09.333Z,8.69
2018-01-27T09:39:37.307Z,8.73
2018-01-27T09:42:04.914Z,8.71
2018-01-27T09:44:32.511Z,8.71
2018-01-27T09:47:00.128Z,8.69
2018-01-27T09:49:27.725Z,8.69
2018-01-27T09:51:55.332Z,8.49
2018-01-27T09:54:22.939Z,8.48
2018-01-27T09:56:50.924Z,8.39
2018-01-27T09:59:18.522Z,8.30
2018-01-27T10:01:46.113Z,8.38
2018-01-27T10:04:13.729Z,8.37
2018-01-27T10:06:41.319Z,8.60
2018-01-27T10:09:08.946Z,8.57
2018-01-27T10:11:36.565Z,8.47
2018-01-27T10:14:04.161Z,8.59
2018-01-27T10:16:31.787Z,8.57
2018-01-27T10:18:59.388Z,8.51
2018-01-27T10:21:27.152Z,8.53
2018-01-27T10:23:54.772Z,8.66
2018-01-27T10:26:22.363Z,8.73
2018-01-27T10:28:49.985Z,8.60
2018-01-27T10:31:17.587Z,8.76
2018-01-27T10:33:45.227Z,8.89
2018-01-27T10:36:12.824Z,9.04
2018-01-27T10:38:40.484Z,9.02
2018-01-27T10:41:08.078Z,9.08
2018-01-27T10:43:35.684Z,9.17
2018-01-27T10:46:03.303Z,9.22
2018-01-27T10:48:30.919Z,9.38
2018-01-27T10:50:58.831Z,9.47
2018-01-27T10:53:26.426Z,9.53
2018-01-27T10:55:54.015Z,9.52
2018-01-27T10:58:21.883Z,9.53
2018-01-27T11:00:49.467Z,9.56
2018-01-27T11:03:17.091Z,9.62
2018-01-27T11:05:44.691Z,9.52
2018-01-27T11:08:12.303Z,9.56
2018-01-27T11:10:39.930Z,9.46
2018-01-27T11:13:07.547Z,9.50
2018-01-27T11:15:35.178Z,9.48
2018-01-27T11:18:02.771Z,9.51
2018-01-27T11:20:30.385Z,9.46
2018-01-27T11:22:57.968Z,9.51
2018-01-27T11:25:25.617Z,9.53
2018-01-27T11:27:53.221Z,9.40
2018-01-27T11:30:20.808Z,9.55
2018-01-27T11:32:48.448Z,9.44
2018-01-27T11:35:16.036Z,9.46
2018-01-27T11:37:43.660Z,9.55
2018-01-27T11:40:11.314Z,9.67
2018-01-27T11:42:38.938Z,9.64
2018-01-27T11:45:06.527Z,9.66
2018-01-27T11:47:34.125Z,9.68
2018-01-27T11:50:01.736Z,9.68
2018-01-27T11:52:29.335Z,9.71
2018-01-27T11:54:56.984Z,9.66
2018-01-27T11:57:24.584Z,9.64
2018-01-27T11:59:52.306Z,9.63
2018-01-27T12:02:19.907Z,9.76
2018-01-27T12:04:47.487Z,9.82
2018-01-27T12:07:15.112Z,9.76
2018-01-27T12:09:42.708Z,9.54
2018-01-27T12:12:10.332Z,9.46
2018-01-27T12:14:38.161Z,9.60
2018-01-27T12:17:05.794Z,9.59
2018-01-27T12:19:33.391Z,9.72
2018-01-27T12:22:00.979Z,9.70
2018-01-27T12:24:28.601Z,9.68
2018-01-27T12:26:56.194Z,9.69
2018-01-27T12:29:23.825Z,9.74
2018-01-27T12:31:51.419Z,9.79
2018-01-27T12:34:19.323Z,9.79
2018-01-27T12:36:46.925Z,9.83
2018-01-27T12:39:14.545Z,9.79
2018-01-27T12:41:42.186Z,9.79
2018-01-27T12:44:09.804Z,9.79
2018-01-27T12:46:37.424Z,9.76
2018-01-27T12:49:05.898Z,9.84
2018-01-27T12:51:33.732Z,9.65
2018-01-27T12:54:01.326Z,9.67
2018-01-27T12:56:28.940Z,9.55
2018-01-27T12:58:56.562Z,9.52
2018-01-27T13:01:24.154Z,9.37
2018-01-27T13:03:51.799Z,9.34
2018-01-27T13:06:19.405Z,9.32
2018-01-27T13:08:47.059Z,9.41
2018-01-27T13:11:14.668Z,9.48
2018-01-27T13:13:42.260Z,9.49
2018-01-27T13:16:09.906Z,9.58
2018-01-27T13:18:37.493Z,9.59
2018-01-27T13:21:05.152Z,9.69
2018-01-27T13:23:32.735Z,9.70
2018-01-27T13:26:00.685Z,9.66
2018-01-27T13:28:28.290Z,9.68
2018-01-27T13:30:55.883Z,9.69
2018-01-27T13:33:23.499Z,9.62
2018-01-27T13:35:51.117Z,9.61
2018-01-27T13:38:18.750Z,9.66
2018-01-27T13:40:46.350Z,9.74
2018-01-27T13:43:14.119Z,9.66
2018-01-27T13:45:41.732Z,9.60
2018-01-27T13:48:09.328Z,9.56
2018-01-27T13:50:36.991Z,9.67
2018-01-27T13:53:04.556Z,9.67
2018-01-27T13:55:32.223Z,9.58
2018-01-27T13:57:59.820Z,9.55
2018-01-27T14:00:27.445Z,9.51
2018-01-27T14:02:55.039Z,9.49
2018-01-27T14:05:22.968Z,9.50
2018-01-27T14:07:50.566Z,9.44
2018-01-27T14:10:18.176Z,9.28
2018-01-27T14:12:45.968Z,9.24
2018-01-27T14:15:13.561Z,9.20
2018-01-27T14:17:41.172Z,9.21
2018-01-27T14:20:08.753Z,9.19
2018-01-27T14:22:36.595Z,9.15
2018-01-27T14:25:04.192Z,9.26
2018-01-27T14:27:31.830Z,9.44
2018-01-27T14:29:59.448Z,9.47
2018-01-27T14:32:27.062Z,9.51
2018-01-27T14:34:54.674Z,9.44
2018-01-27T14:37:22.265Z,9.48
2018-01-27T14:39:49.883Z,9.45
2018-01-27T14:42:17.491Z,9.29
2018-01-27T14:44:45.088Z,9.36
2018-01-27T14:47:12.713Z,9.38
2018-01-27T14:49:40.307Z,9.36
2018-01-27T14:52:08.052Z,9.41
2018-01-27T14:54:35.640Z,9.22
2018-01-27T14:57:03.275Z,9.19
2018-01-27T14:59:42.903Z,9.42
2018-01-27T15:02:11.504Z,9.39
2018-01-27T15:04:39.118Z,9.30
2018-01-27T15:07:06.723Z,9.16
2018-01-27T15:09:34.343Z,9.25
2018-01-27T15:12:01.936Z,9.30
2018-01-27T15:14:29.574Z,9.19
2018-01-27T15:16:57.164Z,9.20
2018-01-27T15:19:24.902Z,9.22
2018-01-27T15:21:52.534Z,9.13
2018-01-27T15:24:20.133Z,9.17
2018-01-27T15:26:47.747Z,9.21
2018-01-27T15:29:15.340Z,9.24
2018-01-27T15:31:43.018Z,9.16
2018-01-27T15:34:10.624Z,9.19
2018-01-27T15:36:38.546Z,9.05
2018-01-27T15:39:06.153Z,8.99
2018-01-27T15:41:33.742Z,8.94
2018-01-27T15:44:01.370Z,8.94
2018-01-27T15:46:28.975Z,8.97
2018-01-27T15:48:56.655Z,9.01
2018-01-27T15:51:24.249Z,8.99
2018-01-27T15:53:51.855Z,9.04
2018-01-27T15:56:19.448Z,9.07
2018-01-27T15:58:47.309Z,9.03
2018-01-27T16:01:14.908Z,9.12
2018-01-27T16:03:42.500Z,9.15
2018-01-27T16:06:10.155Z,8.99
2018-01-27T16:08:37.757Z,8.99
2018-01-27T16:11:05.373Z,9.04
2018-01-27T16:13:32.980Z,8.99
2018-01-27T16:16:00.591Z,8.97
2018-01-27T16:18:28.203Z,9.00
2018-01-27T16:20:55.809Z,9.06
2018-01-27T16:23:23.429Z,9.13
2018-01-27T16:25:51.065Z,9.16
2018-01-27T16:28:18.836Z,9.09
2018-01-27T16:30:46.432Z,9.09
2018-01-27T16:33:14.020Z,9.13
2018-01-27T16:35:41.714Z,9.12
2018-01-27T16:38:09.345Z,9.15
2018-01-27T16:40:37.046Z,9.17
2018-01-27T16:43:04.639Z,9.15
2018-01-27T16:45:32.267Z,9.16
2018-01-27T16:47:59.872Z,9.16
2018-01-27T16:50:27.482Z,9.07
2018-01-27T16:52:55.131Z,9.05
2018-01-27T16:55:22.752Z,9.02
2018-01-27T16:57:50.375Z,9.06
2018-01-27T17:00:17.979Z,9.08
2018-01-27T17:02:45.797Z,8.95
2018-01-27T17:05:13.412Z,8.83
2018-01-27T17:07:41.014Z,8.71
2018-01-27T17:10:08.631Z,8.72
2018-01-27T17:12:36.222Z,8.65
2018-01-27T17:15:03.868Z,8.64
2018-01-27T17:17:31.464Z,8.60
2018-01-27T17:19:59.079Z,8.64
2018-01-27T17:22:26.711Z,8.53
2018-01-27T17:24:54.315Z,8.49
2018-01-27T17:27:21.935Z,8.46
2018-01-27T17:29:49.525Z,8.43
2018-01-27T17:32:17.334Z,8.42
2018-01-27T17:34:44.925Z,8.40
2018-01-27T17:37:12.529Z,8.34
2018-01-27T17:39:40.152Z,8.32
2018-01-27T17:42:07.793Z,8.28
2018-01-27T17:44:35.409Z,8.17
2018-01-27T17:47:03.005Z,8.16
2018-01-27T17:49:31.081Z,8.12
2018-01-27T17:51:58.710Z,8.04
2018-01-27T17:54:26.362Z,8.03
2018-01-27T17:56:54.025Z,8.02
2018-01-27T17:59:21.622Z,7.95
2018-01-27T18:01:50.161Z,7.98
2018-01-27T18:04:17.859Z,7.93
2018-01-27T18:06:45.628Z,7.85
2018-01-27T18:09:13.238Z,7.75
2018-01-27T18:11:40.859Z,7.85
2018-01-27T18:14:08.470Z,7.83
2018-01-27T18:16:36.072Z,7.79
2018-01-27T18:19:03.691Z,7.80
2018-01-27T18:21:31.292Z,7.78
2018-01-27T18:23:59.155Z,7.70
2018-01-27T18:26:26.837Z,7.67
2018-01-27T18:28:54.428Z,7.64
2018-01-27T18:31:22.245Z,7.69
2018-01-27T18:33:49.875Z,7.75
2018-01-27T18:36:17.488Z,7.74
2018-01-27T18:38:45.091Z,7.74
2018-01-27T18:41:12.952Z,7.68
2018-01-27T18:43:40.549Z,7.68
2018-01-27T18:46:08.154Z,7.64
2018-01-27T18:48:35.770Z,7.56
2018-01-27T18:51:03.369Z,7.53
2018-01-27T18:53:30.981Z,7.47
2018-01-27T18:55:58.576Z,7.46
2018-01-27T18:58:26.207Z,7.46
2018-01-27T19:00:53.797Z,7.38
2018-01-27T19:03:21.400Z,7.25
2018-01-27T19:05:49.035Z,7.18
2018-01-27T19:08:17.643Z,7.26
2018-01-27T19:10:45.264Z,7.15
2018-01-27T19:13:12.854Z,7.11
2018-01-27T19:15:40.679Z,7.15
2018-01-27T19:18:08.272Z,7.12
2018-01-27T19:20:35.868Z,7.11
2018-01-27T19:23:03.531Z,7.14
2018-01-27T19:25:31.128Z,6.93
2018-01-27T19:27:58.808Z,6.85
2018-01-27T19:30:26.449Z,6.92
2018-01-27T19:32:54.220Z,6.89
2018-01-27T19:35:21.914Z,6.98
2018-01-27T19:37:49.509Z,6.99
2018-01-27T19:40:17.141Z,6.89
2018-01-27T19:42:44.739Z,6.86
2018-01-27T19:45:12.355Z,6.84
2018-01-27T19:47:39.955Z,6.77
2018-01-27T19:50:07.852Z,6.71
2018-01-27T19:52:35.999Z,6.62
2018-01-27T19:55:04.017Z,6.71
2018-01-27T19:57:31.652Z,6.60
2018-01-27T19:59:59.259Z,6.64
2018-01-27T20:02:26.883Z,6.66
2018-01-27T20:04:54.475Z,6.58
2018-01-27T20:07:22.607Z,6.65
2018-01-27T20:09:50.206Z,6.57
2018-01-27T20:12:17.830Z,6.59
2018-01-27T20:14:45.447Z,6.60
2018-01-27T20:17:13.055Z,6.54
2018-01-27T20:19:40.719Z,6.46
2018-01-27T20:22:08.310Z,6.42
2018-01-27T20:24:36.150Z,6.48
2018-01-27T20:27:03.757Z,6.52
2018-01-27T20:29:31.355Z,6.44
2018-01-27T20:31:58.987Z,6.46
2018-01-27T20:34:26.584Z,6.46
2018-01-27T20:36:54.212Z,6.22
2018-01-27T20:39:21.817Z,6.30
2018-01-27T20:41:49.459Z,6.43
2018-01-27T20:44:17.053Z,6.54
2018-01-27T20:46:44.646Z,6.55
2018-01-27T20:49:12.281Z,6.50
2018-01-27T20:51:39.873Z,6.33
2018-01-27T20:54:07.495Z,6.37
2018-01-27T20:56:35.084Z,6.40
2018-01-27T20:59:02.716Z,6.25
2018-01-27T21:01:30.306Z,5.95
2018-01-27T21:03:58.115Z,5.87
2018-01-27T21:06:25.820Z,5.88
2018-01-27T21:08:53.423Z,5.92
2018-01-27T21:11:21.131Z,5.84
2018-01-27T21:13:48.819Z,5.65
2018-01-27T21:16:16.537Z,5.69
2018-01-27T21:18:44.209Z,5.68
2018-01-27T21:21:11.914Z,5.64
2018-01-27T21:23:39.594Z,5.51
2018-01-27T21:26:07.288Z,5.54
2018-01-27T21:28:34.997Z,5.74
2018-01-27T21:31:02.724Z,5.72
2018-01-27T21:33:30.408Z,5.70
2018-01-27T21:35:58.084Z,5.69
2018-01-27T21:38:25.791Z,5.69
2018-01-27T21:40:53.489Z,5.68
2018-01-27T21:43:21.201Z,5.73
2018-01-27T21:45:48.890Z,5.79
2018-01-27T21:48:16.544Z,5.79
2018-01-27T21:50:44.221Z,5.73
2018-01-27T21:53:11.984Z,5.72
2018-01-27T21:55:39.689Z,5.67
2018-01-27T21:58:07.395Z,5.81
2018-01-27T22:00:35.104Z,5.91
2018-01-27T22:03:02.779Z,5.96
2018-01-27T22:05:30.440Z,6.03
2018-01-27T22:07:58.133Z,6.06
2018-01-27T22:10:25.801Z,6.04
2018-01-27T22:12:53.436Z,5.97
2018-01-27T22:15:21.120Z,5.89
2018-01-27T22:17:48.827Z,5.75
2018-01-27T22:20:16.496Z,5.79
2018-01-27T22:22:44.324Z,5.80
2018-01-27T22:25:11.995Z,5.88
2018-01-27T22:27:39.692Z,6.01
2018-01-27T22:30:07.432Z,6.05
2018-01-27T22:32:35.121Z,6.06
2018-01-27T22:35:02.975Z,5.96
2018-01-27T22:37:35.247Z,6.03
2018-01-27T22:40:03.193Z,5.84
2018-01-27T22:42:30.897Z,5.93
2018-01-27T22:44:58.579Z,6.01
2018-01-27T22:47:26.276Z,6.20
2018-01-27T22:49:53.954Z,6.16
2018-01-27T22:52:21.651Z,6.22
2018-01-27T22:54:49.250Z,6.30
2018-01-27T22:57:16.887Z,6.35
2018-01-27T22:59:44.568Z,6.44
2018-01-27T23:02:12.171Z,6.58
2018-01-27T23:04:39.942Z,6.60
2018-01-27T23:07:07.583Z,6.59
2018-01-27T23:09:35.211Z,6.55
2018-01-27T23:12:02.806Z,6.60
2018-01-27T23:14:30.452Z,6.64
2018-01-27T23:16:58.065Z,6.63
2018-01-27T23:19:25.684Z,6.51
2018-01-27T23:21:53.321Z,6.59
2018-01-27T23:24:20.937Z,6.59
2018-01-27T23:26:48.569Z,6.72
2018-01-27T23:29:16.173Z,6.60
2018-01-27T23:31:43.827Z,6.65
2018-01-27T23:34:11.425Z,6.63
2018-01-27T23:36:39.039Z,6.70
2018-01-27T23:39:06.663Z,6.72
2018-01-27T23:41:34.640Z,6.80
2018-01-27T23:44:02.253Z,6.88
2018-01-27T23:46:29.843Z,6.89
2018-01-27T23:48:57.480Z,7.00
2018-01-27T23:51:25.151Z,7.01
2018-01-27T23:53:52.756Z,6.95
2018-01-27T23:56:20.388Z,7.06
2018-01-27T23:58:47.990Z,6.97
